sensor_id;sensor_type;location;lat;lon;timestamp;temperature;humidity
15596;DHT22;7898;48.658;9.068;2023-08-12T00:01:41;18.00;99.90
15596;DHT22;7898;48.658;9.068;2023-08-12T00:04:07;17.90;99.90
15596;DHT22;7898;48.658;9.068;2023-08-12T00:06:34;17.80;99.90
15596;DHT22;7898;48.658;9.068;2023-08-12T00:09:01;17.80;99.90
15596;DHT22;7898;48.658;9.068;2023-08-12T00:11:29;17.80;99.90
15596;DHT22;7898;48.658;9.068;2023-08-12T00:13:56;17.70;99.90
15596;DHT22;7898;48.658;9.068;2023-08-12T00:16:24;17.60;99.90
15596;DHT22;7898;48.658;9.068;2023-08-12T00:18:51;17.60;99.90
15596;DHT22;7898;48.658;9.068;2023-08-12T00:21:18;17.70;99.90
15596;DHT22;7898;48.658;9.068;2023-08-12T00:23:45;17.80;99.90
15596;DHT22;7898;48.658;9.068;2023-08-12T00:26:13;17.70;99.90
15596;DHT22;7898;48.658;9.068;2023-08-12T00:28:40;17.70;99.90
15596;DHT22;7898;48.658;9.068;2023-08-12T00:31:07;17.50;99.90
15596;DHT22;7898;48.658;9.068;2023-08-12T00:33:35;17.50;99.90
15596;DHT22;7898;48.658;9.068;2023-08-12T00:36:02;17.40;99.90
15596;DHT22;7898;48.658;9.068;2023-08-12T00:38:29;17.30;99.90
15596;DHT22;7898;48.658;9.068;2023-08-12T00:40:56;17.30;99.90
15596;DHT22;7898;48.658;9.068;2023-08-12T00:43:23;17.20;99.90
15596;DHT22;7898;48.658;9.068;2023-08-12T00:45:50;17.20;99.90
15596;DHT22;7898;48.658;9.068;2023-08-12T00:48:17;17.10;99.90
15596;DHT22;7898;48.658;9.068;2023-08-12T00:50:46;17.10;99.90
15596;DHT22;7898;48.658;9.068;2023-08-12T00:53:14;17.00;99.90
15596;DHT22;7898;48.658;9.068;2023-08-12T00:55:42;17.00;99.90
15596;DHT22;7898;48.658;9.068;2023-08-12T00:58:09;17.10;99.90
15596;DHT22;7898;48.658;9.068;2023-08-12T01:00:37;17.00;99.90
15596;DHT22;7898;48.658;9.068;2023-08-12T01:03:05;17.00;99.90
15596;DHT22;7898;48.658;9.068;2023-08-12T01:05:33;17.00;99.90
15596;DHT22;7898;48.658;9.068;2023-08-12T01:08:01;17.10;99.90
15596;DHT22;7898;48.658;9.068;2023-08-12T01:10:33;17.20;99.90
15596;DHT22;7898;48.658;9.068;2023-08-12T01:13:11;17.20;99.90
15596;DHT22;7898;48.658;9.068;2023-08-12T01:15:40;17.20;99.90
15596;DHT22;7898;48.658;9.068;2023-08-12T01:18:07;17.20;99.90
15596;DHT22;7898;48.658;9.068;2023-08-12T01:20:35;17.20;99.90
15596;DHT22;7898;48.658;9.068;2023-08-12T01:23:12;17.10;99.90
15596;DHT22;7898;48.658;9.068;2023-08-12T01:25:39;17.10;99.90
15596;DHT22;7898;48.658;9.068;2023-08-12T01:28:06;17.00;99.90
15596;DHT22;7898;48.658;9.068;2023-08-12T01:30:34;17.00;99.90
15596;DHT22;7898;48.658;9.068;2023-08-12T01:33:07;17.00;99.90
15596;DHT22;7898;48.658;9.068;2023-08-12T01:35:38;17.00;99.90
15596;DHT22;7898;48.658;9.068;2023-08-12T01:38:08;17.00;99.90
15596;DHT22;7898;48.658;9.068;2023-08-12T01:40:38;17.00;99.90
15596;DHT22;7898;48.658;9.068;2023-08-12T01:43:06;17.00;99.90
15596;DHT22;7898;48.658;9.068;2023-08-12T01:45:34;17.00;99.90
15596;DHT22;7898;48.658;9.068;2023-08-12T01:48:01;17.00;99.90
15596;DHT22;7898;48.658;9.068;2023-08-12T01:50:28;17.00;99.90
15596;DHT22;7898;48.658;9.068;2023-08-12T01:52:55;17.00;99.90
15596;DHT22;7898;48.658;9.068;2023-08-12T01:55:23;17.00;99.90
15596;DHT22;7898;48.658;9.068;2023-08-12T01:57:51;16.90;99.90
15596;DHT22;7898;48.658;9.068;2023-08-12T02:00:18;16.90;99.90
15596;DHT22;7898;48.658;9.068;2023-08-12T02:02:45;16.90;99.90
15596;DHT22;7898;48.658;9.068;2023-08-12T02:05:12;16.90;99.90
15596;DHT22;7898;48.658;9.068;2023-08-12T02:07:39;17.10;99.90
15596;DHT22;7898;48.658;9.068;2023-08-12T02:10:07;16.80;99.90
15596;DHT22;7898;48.658;9.068;2023-08-12T02:12:34;16.80;99.90
15596;DHT22;7898;48.658;9.068;2023-08-12T02:15:02;16.90;99.90
15596;DHT22;7898;48.658;9.068;2023-08-12T02:17:29;16.90;99.90
15596;DHT22;7898;48.658;9.068;2023-08-12T02:19:56;16.90;99.90
15596;DHT22;7898;48.658;9.068;2023-08-12T02:22:23;16.90;99.90
15596;DHT22;7898;48.658;9.068;2023-08-12T02:24:50;16.90;99.90
15596;DHT22;7898;48.658;9.068;2023-08-12T02:27:17;16.90;99.90
15596;DHT22;7898;48.658;9.068;2023-08-12T02:29:44;16.90;99.90
15596;DHT22;7898;48.658;9.068;2023-08-12T02:32:12;17.00;99.90
15596;DHT22;7898;48.658;9.068;2023-08-12T02:34:39;17.00;99.90
15596;DHT22;7898;48.658;9.068;2023-08-12T02:37:05;17.00;99.90
15596;DHT22;7898;48.658;9.068;2023-08-12T02:39:32;17.10;99.90
15596;DHT22;7898;48.658;9.068;2023-08-12T02:41:59;17.10;99.90
15596;DHT22;7898;48.658;9.068;2023-08-12T02:44:28;17.10;99.90
15596;DHT22;7898;48.658;9.068;2023-08-12T02:46:54;17.10;99.90
15596;DHT22;7898;48.658;9.068;2023-08-12T02:49:23;17.20;99.90
15596;DHT22;7898;48.658;9.068;2023-08-12T02:51:50;17.20;99.90
15596;DHT22;7898;48.658;9.068;2023-08-12T02:54:16;17.20;99.90
15596;DHT22;7898;48.658;9.068;2023-08-12T02:56:43;17.30;99.90
15596;DHT22;7898;48.658;9.068;2023-08-12T02:59:10;17.30;99.90
15596;DHT22;7898;48.658;9.068;2023-08-12T03:01:37;17.30;99.90
15596;DHT22;7898;48.658;9.068;2023-08-12T03:04:05;17.30;99.90
15596;DHT22;7898;48.658;9.068;2023-08-12T03:06:33;17.30;99.90
15596;DHT22;7898;48.658;9.068;2023-08-12T03:09:00;17.30;99.90
15596;DHT22;7898;48.658;9.068;2023-08-12T03:11:26;17.30;99.90
15596;DHT22;7898;48.658;9.068;2023-08-12T03:13:53;17.20;99.90
15596;DHT22;7898;48.658;9.068;2023-08-12T03:16:20;17.20;99.90
15596;DHT22;7898;48.658;9.068;2023-08-12T03:18:47;17.30;99.90
15596;DHT22;7898;48.658;9.068;2023-08-12T03:21:14;17.30;99.90
15596;DHT22;7898;48.658;9.068;2023-08-12T03:23:42;17.30;99.90
15596;DHT22;7898;48.658;9.068;2023-08-12T03:26:09;17.30;99.90
15596;DHT22;7898;48.658;9.068;2023-08-12T03:28:36;17.40;99.90
15596;DHT22;7898;48.658;9.068;2023-08-12T03:31:03;17.40;99.90
15596;DHT22;7898;48.658;9.068;2023-08-12T03:33:30;17.30;99.90
15596;DHT22;7898;48.658;9.068;2023-08-12T03:35:57;17.20;99.90
15596;DHT22;7898;48.658;9.068;2023-08-12T03:38:24;17.20;99.90
15596;DHT22;7898;48.658;9.068;2023-08-12T03:40:52;17.20;99.90
15596;DHT22;7898;48.658;9.068;2023-08-12T03:43:19;17.20;99.90
15596;DHT22;7898;48.658;9.068;2023-08-12T03:45:47;17.20;99.90
15596;DHT22;7898;48.658;9.068;2023-08-12T03:48:14;17.20;99.90
15596;DHT22;7898;48.658;9.068;2023-08-12T03:50:42;17.20;99.90
15596;DHT22;7898;48.658;9.068;2023-08-12T03:53:11;17.20;99.90
15596;DHT22;7898;48.658;9.068;2023-08-12T03:55:38;17.20;99.90
15596;DHT22;7898;48.658;9.068;2023-08-12T03:58:06;17.20;99.90
15596;DHT22;7898;48.658;9.068;2023-08-12T04:00:33;17.20;99.90
15596;DHT22;7898;48.658;9.068;2023-08-12T04:02:59;17.30;99.90
15596;DHT22;7898;48.658;9.068;2023-08-12T04:05:26;17.30;99.90
15596;DHT22;7898;48.658;9.068;2023-08-12T04:07:53;17.30;99.90
15596;DHT22;7898;48.658;9.068;2023-08-12T04:10:20;17.40;99.90
15596;DHT22;7898;48.658;9.068;2023-08-12T04:12:47;17.50;99.90
15596;DHT22;7898;48.658;9.068;2023-08-12T04:15:15;17.60;99.90
15596;DHT22;7898;48.658;9.068;2023-08-12T04:17:42;17.60;99.90
15596;DHT22;7898;48.658;9.068;2023-08-12T04:20:09;17.60;99.90
15596;DHT22;7898;48.658;9.068;2023-08-12T04:22:37;17.60;99.90
15596;DHT22;7898;48.658;9.068;2023-08-12T04:25:04;17.60;99.90
15596;DHT22;7898;48.658;9.068;2023-08-12T04:27:31;17.50;99.90
15596;DHT22;7898;48.658;9.068;2023-08-12T04:29:58;17.50;99.90
15596;DHT22;7898;48.658;9.068;2023-08-12T04:32:26;17.50;99.90
15596;DHT22;7898;48.658;9.068;2023-08-12T04:34:53;17.50;99.90
15596;DHT22;7898;48.658;9.068;2023-08-12T04:37:20;17.50;99.90
15596;DHT22;7898;48.658;9.068;2023-08-12T04:39:49;17.50;99.90
15596;DHT22;7898;48.658;9.068;2023-08-12T04:42:16;17.50;99.90
15596;DHT22;7898;48.658;9.068;2023-08-12T04:44:43;17.60;99.90
15596;DHT22;7898;48.658;9.068;2023-08-12T04:47:09;17.60;99.90
15596;DHT22;7898;48.658;9.068;2023-08-12T04:49:38;17.70;99.90
15596;DHT22;7898;48.658;9.068;2023-08-12T04:52:05;17.70;99.90
15596;DHT22;7898;48.658;9.068;2023-08-12T04:54:32;17.70;99.90
15596;DHT22;7898;48.658;9.068;2023-08-12T04:56:59;17.70;99.90
15596;DHT22;7898;48.658;9.068;2023-08-12T04:59:26;17.60;99.90
15596;DHT22;7898;48.658;9.068;2023-08-12T05:01:53;17.60;99.90
15596;DHT22;7898;48.658;9.068;2023-08-12T05:04:20;17.60;99.90
15596;DHT22;7898;48.658;9.068;2023-08-12T05:06:48;17.60;99.90
15596;DHT22;7898;48.658;9.068;2023-08-12T05:09:15;17.60;99.90
15596;DHT22;7898;48.658;9.068;2023-08-12T05:11:42;17.70;99.90
15596;DHT22;7898;48.658;9.068;2023-08-12T05:14:09;17.70;99.90
15596;DHT22;7898;48.658;9.068;2023-08-12T05:16:35;17.90;99.90
15596;DHT22;7898;48.658;9.068;2023-08-12T05:19:03;18.00;99.90
15596;DHT22;7898;48.658;9.068;2023-08-12T05:21:29;18.10;99.90
15596;DHT22;7898;48.658;9.068;2023-08-12T05:23:58;18.10;99.90
15596;DHT22;7898;48.658;9.068;2023-08-12T05:26:24;18.10;99.90
15596;DHT22;7898;48.658;9.068;2023-08-12T05:28:51;18.20;99.90
15596;DHT22;7898;48.658;9.068;2023-08-12T05:31:18;18.30;99.90
15596;DHT22;7898;48.658;9.068;2023-08-12T05:33:45;18.40;99.90
15596;DHT22;7898;48.658;9.068;2023-08-12T05:36:12;18.40;99.90
15596;DHT22;7898;48.658;9.068;2023-08-12T05:38:39;18.50;99.90
15596;DHT22;7898;48.658;9.068;2023-08-12T05:41:07;18.50;99.90
15596;DHT22;7898;48.658;9.068;2023-08-12T05:43:34;18.60;99.90
15596;DHT22;7898;48.658;9.068;2023-08-12T05:46:01;18.60;99.90
15596;DHT22;7898;48.658;9.068;2023-08-12T05:48:28;18.70;99.90
15596;DHT22;7898;48.658;9.068;2023-08-12T05:50:55;18.70;99.90
15596;DHT22;7898;48.658;9.068;2023-08-12T05:53:22;18.70;99.90
15596;DHT22;7898;48.658;9.068;2023-08-12T05:55:49;18.70;99.90
15596;DHT22;7898;48.658;9.068;2023-08-12T05:58:17;18.60;99.90
15596;DHT22;7898;48.658;9.068;2023-08-12T06:00:44;18.60;99.90
15596;DHT22;7898;48.658;9.068;2023-08-12T06:03:11;18.60;99.90
15596;DHT22;7898;48.658;9.068;2023-08-12T06:05:39;18.60;99.90
15596;DHT22;7898;48.658;9.068;2023-08-12T06:08:06;18.60;99.90
15596;DHT22;7898;48.658;9.068;2023-08-12T06:10:33;18.70;99.90
15596;DHT22;7898;48.658;9.068;2023-08-12T06:13:00;18.70;99.90
15596;DHT22;7898;48.658;9.068;2023-08-12T06:15:28;18.80;99.90
15596;DHT22;7898;48.658;9.068;2023-08-12T06:17:55;18.90;99.90
15596;DHT22;7898;48.658;9.068;2023-08-12T06:20:23;19.00;99.90
15596;DHT22;7898;48.658;9.068;2023-08-12T06:22:50;19.10;99.90
15596;DHT22;7898;48.658;9.068;2023-08-12T06:25:17;19.30;99.90
15596;DHT22;7898;48.658;9.068;2023-08-12T06:27:44;19.50;99.90
15596;DHT22;7898;48.658;9.068;2023-08-12T06:30:12;19.70;99.90
15596;DHT22;7898;48.658;9.068;2023-08-12T06:32:40;19.90;99.90
15596;DHT22;7898;48.658;9.068;2023-08-12T06:35:08;20.00;99.90
15596;DHT22;7898;48.658;9.068;2023-08-12T06:37:34;20.30;99.90
15596;DHT22;7898;48.658;9.068;2023-08-12T06:40:02;20.70;99.90
15596;DHT22;7898;48.658;9.068;2023-08-12T06:42:29;21.10;99.90
15596;DHT22;7898;48.658;9.068;2023-08-12T06:44:57;21.60;99.90
15596;DHT22;7898;48.658;9.068;2023-08-12T06:47:24;22.00;99.90
15596;DHT22;7898;48.658;9.068;2023-08-12T06:49:53;22.20;99.90
15596;DHT22;7898;48.658;9.068;2023-08-12T06:52:20;22.60;99.90
15596;DHT22;7898;48.658;9.068;2023-08-12T06:54:47;22.80;99.90
15596;DHT22;7898;48.658;9.068;2023-08-12T06:57:14;23.10;99.90
15596;DHT22;7898;48.658;9.068;2023-08-12T06:59:41;23.30;99.90
15596;DHT22;7898;48.658;9.068;2023-08-12T07:02:08;23.50;99.90
15596;DHT22;7898;48.658;9.068;2023-08-12T07:04:34;23.50;99.90
15596;DHT22;7898;48.658;9.068;2023-08-12T07:07:03;23.50;99.90
15596;DHT22;7898;48.658;9.068;2023-08-12T07:09:30;24.00;99.90
15596;DHT22;7898;48.658;9.068;2023-08-12T07:11:56;24.60;99.90
15596;DHT22;7898;48.658;9.068;2023-08-12T07:14:24;25.30;99.90
15596;DHT22;7898;48.658;9.068;2023-08-12T07:16:51;26.00;99.90
15596;DHT22;7898;48.658;9.068;2023-08-12T07:19:18;26.70;99.90
15596;DHT22;7898;48.658;9.068;2023-08-12T07:21:45;27.20;99.90
15596;DHT22;7898;48.658;9.068;2023-08-12T07:24:13;27.70;99.90
15596;DHT22;7898;48.658;9.068;2023-08-12T07:26:40;28.00;99.90
15596;DHT22;7898;48.658;9.068;2023-08-12T07:29:06;28.10;99.90
15596;DHT22;7898;48.658;9.068;2023-08-12T07:31:33;28.10;99.90
15596;DHT22;7898;48.658;9.068;2023-08-12T07:34:00;28.40;99.90
15596;DHT22;7898;48.658;9.068;2023-08-12T07:36:27;28.80;99.90
15596;DHT22;7898;48.658;9.068;2023-08-12T07:38:54;29.30;99.90
15596;DHT22;7898;48.658;9.068;2023-08-12T07:41:23;29.30;99.90
15596;DHT22;7898;48.658;9.068;2023-08-12T07:43:52;29.00;99.90
15596;DHT22;7898;48.658;9.068;2023-08-12T07:46:19;28.50;99.90
15596;DHT22;7898;48.658;9.068;2023-08-12T07:48:46;27.90;99.90
15596;DHT22;7898;48.658;9.068;2023-08-12T07:51:13;28.20;99.90
15596;DHT22;7898;48.658;9.068;2023-08-12T07:53:40;28.80;99.90
15596;DHT22;7898;48.658;9.068;2023-08-12T07:56:07;29.10;99.90
15596;DHT22;7898;48.658;9.068;2023-08-12T07:58:35;29.70;99.90
15596;DHT22;7898;48.658;9.068;2023-08-12T08:01:02;30.20;99.90
15596;DHT22;7898;48.658;9.068;2023-08-12T08:03:30;30.60;99.90
15596;DHT22;7898;48.658;9.068;2023-08-12T08:05:57;31.10;99.90
15596;DHT22;7898;48.658;9.068;2023-08-12T08:08:24;31.60;99.90
15596;DHT22;7898;48.658;9.068;2023-08-12T08:10:51;31.50;99.90
15596;DHT22;7898;48.658;9.068;2023-08-12T08:13:17;30.70;99.90
15596;DHT22;7898;48.658;9.068;2023-08-12T08:15:46;29.90;99.90
15596;DHT22;7898;48.658;9.068;2023-08-12T08:18:13;29.50;99.90
15596;DHT22;7898;48.658;9.068;2023-08-12T08:20:41;29.30;99.90
15596;DHT22;7898;48.658;9.068;2023-08-12T08:23:08;29.50;99.90
15596;DHT22;7898;48.658;9.068;2023-08-12T08:25:35;29.70;99.90
15596;DHT22;7898;48.658;9.068;2023-08-12T08:28:03;29.80;99.90
15596;DHT22;7898;48.658;9.068;2023-08-12T08:30:29;30.00;99.90
15596;DHT22;7898;48.658;9.068;2023-08-12T08:32:58;29.90;99.90
15596;DHT22;7898;48.658;9.068;2023-08-12T08:35:25;30.20;99.90
15596;DHT22;7898;48.658;9.068;2023-08-12T08:37:52;30.20;99.90
15596;DHT22;7898;48.658;9.068;2023-08-12T08:40:19;30.10;99.90
15596;DHT22;7898;48.658;9.068;2023-08-12T08:42:47;29.80;99.90
15596;DHT22;7898;48.658;9.068;2023-08-12T08:45:15;29.60;99.90
15596;DHT22;7898;48.658;9.068;2023-08-12T08:47:45;29.70;99.90
15596;DHT22;7898;48.658;9.068;2023-08-12T08:50:15;29.80;99.90
15596;DHT22;7898;48.658;9.068;2023-08-12T08:52:42;29.90;99.90
15596;DHT22;7898;48.658;9.068;2023-08-12T08:55:10;29.90;99.90
15596;DHT22;7898;48.658;9.068;2023-08-12T08:57:37;30.00;99.90
15596;DHT22;7898;48.658;9.068;2023-08-12T09:00:05;30.20;99.90
15596;DHT22;7898;48.658;9.068;2023-08-12T09:02:33;30.30;99.90
15596;DHT22;7898;48.658;9.068;2023-08-12T09:05:01;30.50;99.90
15596;DHT22;7898;48.658;9.068;2023-08-12T09:07:30;30.70;99.90
15596;DHT22;7898;48.658;9.068;2023-08-12T09:09:58;30.60;99.90
15596;DHT22;7898;48.658;9.068;2023-08-12T09:12:27;30.70;99.90
15596;DHT22;7898;48.658;9.068;2023-08-12T09:14:54;30.80;99.90
15596;DHT22;7898;48.658;9.068;2023-08-12T09:17:21;31.00;99.90
15596;DHT22;7898;48.658;9.068;2023-08-12T09:19:49;30.90;99.90
15596;DHT22;7898;48.658;9.068;2023-08-12T09:22:17;30.70;99.90
15596;DHT22;7898;48.658;9.068;2023-08-12T09:24:46;30.30;99.90
15596;DHT22;7898;48.658;9.068;2023-08-12T09:27:17;30.10;99.90
15596;DHT22;7898;48.658;9.068;2023-08-12T09:29:44;30.10;99.90
15596;DHT22;7898;48.658;9.068;2023-08-12T09:32:12;30.30;99.90
15596;DHT22;7898;48.658;9.068;2023-08-12T09:34:46;30.60;99.90
15596;DHT22;7898;48.658;9.068;2023-08-12T09:37:14;30.80;99.90
15596;DHT22;7898;48.658;9.068;2023-08-12T09:39:41;30.70;99.90
15596;DHT22;7898;48.658;9.068;2023-08-12T09:42:11;30.80;99.90
15596;DHT22;7898;48.658;9.068;2023-08-12T09:44:38;30.60;99.90
15596;DHT22;7898;48.658;9.068;2023-08-12T09:47:06;30.30;99.90
15596;DHT22;7898;48.658;9.068;2023-08-12T09:49:33;29.90;99.90
15596;DHT22;7898;48.658;9.068;2023-08-12T09:52:01;29.60;99.90
15596;DHT22;7898;48.658;9.068;2023-08-12T09:54:31;29.50;99.90
15596;DHT22;7898;48.658;9.068;2023-08-12T09:56:59;29.30;99.90
15596;DHT22;7898;48.658;9.068;2023-08-12T09:59:30;29.10;99.90
15596;DHT22;7898;48.658;9.068;2023-08-12T10:01:58;29.00;99.90
15596;DHT22;7898;48.658;9.068;2023-08-12T10:04:27;28.80;99.90
15596;DHT22;7898;48.658;9.068;2023-08-12T10:06:55;28.70;99.90
15596;DHT22;7898;48.658;9.068;2023-08-12T10:09:22;28.60;99.90
15596;DHT22;7898;48.658;9.068;2023-08-12T10:11:51;28.60;99.90
15596;DHT22;7898;48.658;9.068;2023-08-12T10:14:19;28.50;99.90
15596;DHT22;7898;48.658;9.068;2023-08-12T10:16:49;28.60;99.90
15596;DHT22;7898;48.658;9.068;2023-08-12T10:19:16;28.50;99.90
15596;DHT22;7898;48.658;9.068;2023-08-12T10:21:44;28.50;99.90
15596;DHT22;7898;48.658;9.068;2023-08-12T10:24:12;28.50;99.90
15596;DHT22;7898;48.658;9.068;2023-08-12T10:26:42;28.50;99.90
15596;DHT22;7898;48.658;9.068;2023-08-12T10:29:10;28.60;99.90
15596;DHT22;7898;48.658;9.068;2023-08-12T10:31:38;28.60;99.90
15596;DHT22;7898;48.658;9.068;2023-08-12T10:34:06;28.70;99.90
15596;DHT22;7898;48.658;9.068;2023-08-12T10:36:34;28.60;99.90
15596;DHT22;7898;48.658;9.068;2023-08-12T10:39:02;28.50;99.90
15596;DHT22;7898;48.658;9.068;2023-08-12T10:41:35;28.40;99.90
15596;DHT22;7898;48.658;9.068;2023-08-12T10:44:05;28.40;99.90
15596;DHT22;7898;48.658;9.068;2023-08-12T10:46:33;28.50;99.90
15596;DHT22;7898;48.658;9.068;2023-08-12T10:49:03;28.60;99.90
15596;DHT22;7898;48.658;9.068;2023-08-12T10:51:56;28.90;99.90
15596;DHT22;7898;48.658;9.068;2023-08-12T10:54:24;29.10;99.90
15596;DHT22;7898;48.658;9.068;2023-08-12T10:57:08;29.10;99.90
15596;DHT22;7898;48.658;9.068;2023-08-12T10:59:53;29.10;99.90
15596;DHT22;7898;48.658;9.068;2023-08-12T11:02:25;29.10;99.90
15596;DHT22;7898;48.658;9.068;2023-08-12T11:04:54;29.00;99.90
15596;DHT22;7898;48.658;9.068;2023-08-12T11:07:27;29.20;99.90
15596;DHT22;7898;48.658;9.068;2023-08-12T11:09:58;29.40;99.90
15596;DHT22;7898;48.658;9.068;2023-08-12T11:12:29;29.40;99.90
15596;DHT22;7898;48.658;9.068;2023-08-12T11:14:58;29.50;99.90
15596;DHT22;7898;48.658;9.068;2023-08-12T11:17:33;29.50;99.90
15596;DHT22;7898;48.658;9.068;2023-08-12T11:20:01;29.70;99.90
15596;DHT22;7898;48.658;9.068;2023-08-12T11:22:32;29.80;99.90
15596;DHT22;7898;48.658;9.068;2023-08-12T11:25:02;29.80;99.90
15596;DHT22;7898;48.658;9.068;2023-08-12T11:27:39;29.80;99.90
15596;DHT22;7898;48.658;9.068;2023-08-12T11:30:07;29.80;99.90
15596;DHT22;7898;48.658;9.068;2023-08-12T11:32:36;29.70;99.90
15596;DHT22;7898;48.658;9.068;2023-08-12T11:35:04;29.50;99.90
15596;DHT22;7898;48.658;9.068;2023-08-12T11:37:35;29.30;99.90
15596;DHT22;7898;48.658;9.068;2023-08-12T11:40:02;29.10;99.90
15596;DHT22;7898;48.658;9.068;2023-08-12T11:42:29;29.10;99.90
15596;DHT22;7898;48.658;9.068;2023-08-12T11:44:56;29.20;99.90
15596;DHT22;7898;48.658;9.068;2023-08-12T11:47:23;29.20;99.90
15596;DHT22;7898;48.658;9.068;2023-08-12T11:49:52;29.40;99.90
15596;DHT22;7898;48.658;9.068;2023-08-12T11:52:19;29.50;99.90
15596;DHT22;7898;48.658;9.068;2023-08-12T11:54:48;29.70;99.90
15596;DHT22;7898;48.658;9.068;2023-08-12T11:57:15;29.90;99.90
15596;DHT22;7898;48.658;9.068;2023-08-12T11:59:42;30.00;99.90
15596;DHT22;7898;48.658;9.068;2023-08-12T12:02:10;30.10;99.90
15596;DHT22;7898;48.658;9.068;2023-08-12T12:04:38;30.00;99.90
15596;DHT22;7898;48.658;9.068;2023-08-12T12:07:17;29.80;99.90
15596;DHT22;7898;48.658;9.068;2023-08-12T12:09:44;29.60;99.90
15596;DHT22;7898;48.658;9.068;2023-08-12T12:12:13;29.50;99.90
15596;DHT22;7898;48.658;9.068;2023-08-12T12:14:40;29.20;99.90
15596;DHT22;7898;48.658;9.068;2023-08-12T12:17:08;29.00;99.90
15596;DHT22;7898;48.658;9.068;2023-08-12T12:19:36;28.90;99.90
15596;DHT22;7898;48.658;9.068;2023-08-12T12:22:03;28.70;99.90
15596;DHT22;7898;48.658;9.068;2023-08-12T12:24:43;28.50;99.90
15596;DHT22;7898;48.658;9.068;2023-08-12T12:27:12;28.20;99.90
15596;DHT22;7898;48.658;9.068;2023-08-12T12:29:39;27.60;99.90
15596;DHT22;7898;48.658;9.068;2023-08-12T12:32:10;26.80;99.90
15596;DHT22;7898;48.658;9.068;2023-08-12T12:34:38;25.90;99.90
15596;DHT22;7898;48.658;9.068;2023-08-12T12:37:05;24.80;99.90
15596;DHT22;7898;48.658;9.068;2023-08-12T12:39:32;24.10;99.90
15596;DHT22;7898;48.658;9.068;2023-08-12T12:41:58;23.40;99.90
15596;DHT22;7898;48.658;9.068;2023-08-12T12:44:27;22.90;99.90
15596;DHT22;7898;48.658;9.068;2023-08-12T12:46:54;22.50;99.90
15596;DHT22;7898;48.658;9.068;2023-08-12T12:49:21;22.30;99.90
15596;DHT22;7898;48.658;9.068;2023-08-12T12:51:48;22.10;99.90
15596;DHT22;7898;48.658;9.068;2023-08-12T12:54:14;22.10;99.90
15596;DHT22;7898;48.658;9.068;2023-08-12T12:56:41;22.20;99.90
15596;DHT22;7898;48.658;9.068;2023-08-12T12:59:09;22.20;99.90
15596;DHT22;7898;48.658;9.068;2023-08-12T13:01:37;22.20;99.90
15596;DHT22;7898;48.658;9.068;2023-08-12T13:04:04;22.40;99.90
15596;DHT22;7898;48.658;9.068;2023-08-12T13:06:33;22.40;99.90
15596;DHT22;7898;48.658;9.068;2023-08-12T13:09:00;22.40;99.90
15596;DHT22;7898;48.658;9.068;2023-08-12T13:11:28;22.40;99.90
15596;DHT22;7898;48.658;9.068;2023-08-12T13:13:55;22.40;99.90
15596;DHT22;7898;48.658;9.068;2023-08-12T13:16:22;22.40;99.90
15596;DHT22;7898;48.658;9.068;2023-08-12T13:18:50;22.50;99.90
15596;DHT22;7898;48.658;9.068;2023-08-12T13:21:17;22.50;99.90
15596;DHT22;7898;48.658;9.068;2023-08-12T13:23:44;22.50;99.90
15596;DHT22;7898;48.658;9.068;2023-08-12T13:26:11;22.60;99.90
15596;DHT22;7898;48.658;9.068;2023-08-12T13:28:38;22.60;99.90
15596;DHT22;7898;48.658;9.068;2023-08-12T13:31:05;22.60;99.90
15596;DHT22;7898;48.658;9.068;2023-08-12T13:33:32;22.70;99.90
15596;DHT22;7898;48.658;9.068;2023-08-12T13:36:00;22.90;99.90
15596;DHT22;7898;48.658;9.068;2023-08-12T13:38:27;23.20;99.90
15596;DHT22;7898;48.658;9.068;2023-08-12T13:40:54;23.50;99.90
15596;DHT22;7898;48.658;9.068;2023-08-12T13:43:20;23.80;99.90
15596;DHT22;7898;48.658;9.068;2023-08-12T13:45:48;24.10;99.90
15596;DHT22;7898;48.658;9.068;2023-08-12T13:48:15;24.40;99.90
15596;DHT22;7898;48.658;9.068;2023-08-12T13:50:42;24.60;99.90
15596;DHT22;7898;48.658;9.068;2023-08-12T13:53:10;24.70;99.90
15596;DHT22;7898;48.658;9.068;2023-08-12T13:55:37;24.90;99.90
15596;DHT22;7898;48.658;9.068;2023-08-12T13:58:04;24.90;99.90
15596;DHT22;7898;48.658;9.068;2023-08-12T14:00:30;24.80;99.90
15596;DHT22;7898;48.658;9.068;2023-08-12T14:02:58;24.80;99.90
15596;DHT22;7898;48.658;9.068;2023-08-12T14:05:25;24.90;99.90
15596;DHT22;7898;48.658;9.068;2023-08-12T14:07:51;25.00;99.90
15596;DHT22;7898;48.658;9.068;2023-08-12T14:10:20;25.30;99.90
15596;DHT22;7898;48.658;9.068;2023-08-12T14:12:46;25.70;99.90
15596;DHT22;7898;48.658;9.068;2023-08-12T14:15:14;26.10;99.90
15596;DHT22;7898;48.658;9.068;2023-08-12T14:17:41;26.20;99.90
15596;DHT22;7898;48.658;9.068;2023-08-12T14:20:08;26.30;99.90
15596;DHT22;7898;48.658;9.068;2023-08-12T14:22:35;26.50;99.90
15596;DHT22;7898;48.658;9.068;2023-08-12T14:25:03;27.00;99.90
15596;DHT22;7898;48.658;9.068;2023-08-12T14:27:31;27.40;99.90
15596;DHT22;7898;48.658;9.068;2023-08-12T14:29:58;27.70;99.90
15596;DHT22;7898;48.658;9.068;2023-08-12T14:32:25;28.10;99.90
15596;DHT22;7898;48.658;9.068;2023-08-12T14:34:52;28.70;99.90
15596;DHT22;7898;48.658;9.068;2023-08-12T14:37:19;29.00;99.90
15596;DHT22;7898;48.658;9.068;2023-08-12T14:39:46;28.90;99.90
15596;DHT22;7898;48.658;9.068;2023-08-12T14:42:13;29.00;99.90
15596;DHT22;7898;48.658;9.068;2023-08-12T14:44:41;28.80;99.90
15596;DHT22;7898;48.658;9.068;2023-08-12T14:47:08;28.50;99.90
15596;DHT22;7898;48.658;9.068;2023-08-12T14:49:34;28.80;99.90
15596;DHT22;7898;48.658;9.068;2023-08-12T14:52:01;29.30;99.90
15596;DHT22;7898;48.658;9.068;2023-08-12T14:54:28;30.10;99.90
15596;DHT22;7898;48.658;9.068;2023-08-12T14:56:55;30.50;99.90
15596;DHT22;7898;48.658;9.068;2023-08-12T14:59:22;30.60;99.90
15596;DHT22;7898;48.658;9.068;2023-08-12T15:01:50;30.90;99.90
15596;DHT22;7898;48.658;9.068;2023-08-12T15:04:17;31.40;99.90
15596;DHT22;7898;48.658;9.068;2023-08-12T15:06:44;31.50;99.90
15596;DHT22;7898;48.658;9.068;2023-08-12T15:09:11;31.20;99.90
15596;DHT22;7898;48.658;9.068;2023-08-12T15:11:38;31.60;99.90
15596;DHT22;7898;48.658;9.068;2023-08-12T15:14:05;31.40;99.90
15596;DHT22;7898;48.658;9.068;2023-08-12T15:16:32;31.90;99.90
15596;DHT22;7898;48.658;9.068;2023-08-12T15:19:01;31.80;99.90
15596;DHT22;7898;48.658;9.068;2023-08-12T15:21:29;31.50;99.90
15596;DHT22;7898;48.658;9.068;2023-08-12T15:23:55;31.50;99.90
15596;DHT22;7898;48.658;9.068;2023-08-12T15:26:22;30.90;99.90
15596;DHT22;7898;48.658;9.068;2023-08-12T15:28:49;30.10;99.90
15596;DHT22;7898;48.658;9.068;2023-08-12T15:31:16;29.60;99.90
15596;DHT22;7898;48.658;9.068;2023-08-12T15:33:43;29.00;99.90
15596;DHT22;7898;48.658;9.068;2023-08-12T15:36:11;28.30;99.90
15596;DHT22;7898;48.658;9.068;2023-08-12T15:38:38;27.80;99.90
15596;DHT22;7898;48.658;9.068;2023-08-12T15:41:12;27.40;99.90
15596;DHT22;7898;48.658;9.068;2023-08-12T15:43:39;27.10;99.90
15596;DHT22;7898;48.658;9.068;2023-08-12T15:46:06;26.80;99.90
15596;DHT22;7898;48.658;9.068;2023-08-12T15:48:33;26.60;99.90